Airfield :
LOGIN :

Register | Disclaimer

   EN    FR    IT 

 










Legend :    VFR   Marginal VFR   IFR   Intensive IFR   Very Intensive IFR
Visi :
Ceiling :
>= 8 km
>= 3000ft
5 to 8 km
1000 to 3000 ft
1500m to 5 km
500 to 1000 ft
800 to 1500m
200 to 500 ft
< 800m
< 200 ft
Symbols :   Thunderstorms  Fog  Heavy snow  Heavy precipitations  Wind > 20 kt
SIGMETs :     Misc.  Thunderstorms  Icing  Turbulence  Mountain Waves  Volcanic Ashes







- Airport Elevation : 407 ft


EGDM - MoD Boscombe Down Amesbury

CURRENT METAR :
  • 192107Z 04009KT 9999 FEW016 BKN060 04/03 Q1015 BLU NOSIG

EXPIRED METARs :
  • 192050Z 05012KT 9999 -SHRA SCT016 BKN050 05/03 Q1015 WHT BECMG FEW016 BLU
  • 191950Z 02014KT 9999 FEW017 BKN050 05/03 Q1015 BLU TEMPO 7000 -SHRA SCT016 WHT
  • 191850Z 03015KT 9999 FEW030 SCT050 05/02 Q1016 BLU NOSIG

TAF TAF EGDM
Valid from the 19 at 21:00 until the 20 at 00:00 UTC


191940Z 1921/1924 03011KT 9999 SCT025
PROB30
TEMPO 1921/1924 7000 -SHRA SCT016
No reported NOTAMs for that airfield.



MET'MAP, your aeronautical weather chart ! - Copyright ORBIFLY December 2007 - Disclaimer

ORBIFLY MET'MAP TEAM :

Programming & Development : Alexandra Zaïnal
Concept & Development : Baudouin d'Aumeries
Co-Development & Prog : Marc-Olivier Méhu
Technical & hardware support : Manuel Goepfert

Contact : metmap@orbifly.com




SOURCES & CREDITS :

   NOAA